Time;durP1;ratioP1;P1;durP2;ratioP2;P2;SDS_P1;SDS_P2;PMS_P1;PMS_P2;Temp;Humidity;BMP_temperature;BMP_pressure;BME280_temperature;BME280_humidity;BME280_pressure;Samples;Min_cycle;Max_cycle;Signal;HPM_P1;HPM_P2
2022/04/24 00:01:14;;;;;;;;;;;9.00;99.90;;;;;;5055519;28;20159;-79
2022/04/24 00:03:40;;;;;;;;;;;8.90;99.90;;;;;;5040834;28;19905;-80
2022/04/24 00:06:05;;;;;;;;;;;8.90;99.90;;;;;;5055489;28;19909;-80
2022/04/24 00:08:31;;;;;;;;;;;8.90;99.90;;;;;;5060660;28;19905;-79
2022/04/24 00:10:56;;;;;;;;;;;8.90;99.90;;;;;;5059441;28;19931;-79
2022/04/24 00:13:23;;;;;;;;;;;8.80;99.90;;;;;;5069637;28;19909;-79
2022/04/24 00:15:49;;;;;;;;;;;8.70;99.90;;;;;;5075229;28;20316;-79
2022/04/24 00:18:15;;;;;;;;;;;8.60;99.90;;;;;;5075377;28;19920;-79
2022/04/24 00:20:42;;;;;;;;;;;8.50;99.90;;;;;;5073435;28;20019;-80
2022/04/24 00:23:08;;;;;;;;;;;8.40;99.90;;;;;;5070102;28;19905;-79
2022/04/24 00:25:33;;;;;;;;;;;8.30;99.90;;;;;;5070139;28;19908;-79
2022/04/24 00:28:00;;;;;;;;;;;8.30;99.90;;;;;;5066928;28;19909;-80
2022/04/24 00:30:26;;;;;;;;;;;8.30;99.90;;;;;;5064059;28;19950;-80
2022/04/24 00:32:52;;;;;;;;;;;8.40;99.90;;;;;;5064023;28;19905;-80
2022/04/24 00:35:17;;;;;;;;;;;8.40;99.90;;;;;;5063737;28;19999;-80
2022/04/24 00:37:43;;;;;;;;;;;8.40;99.90;;;;;;5062860;28;19905;-80
2022/04/24 00:40:09;;;;;;;;;;;8.40;99.90;;;;;;5062724;28;19920;-80
2022/04/24 00:42:35;;;;;;;;;;;8.40;99.90;;;;;;5062064;28;19916;-80
2022/04/24 00:45:00;;;;;;;;;;;8.30;99.90;;;;;;5062158;28;19905;-80
2022/04/24 00:47:26;;;;;;;;;;;8.20;99.90;;;;;;5062048;28;19905;-80
2022/04/24 00:49:52;;;;;;;;;;;8.20;99.90;;;;;;5061425;28;19909;-80
2022/04/24 00:52:18;;;;;;;;;;;8.10;99.90;;;;;;5061444;28;19911;-80
2022/04/24 00:54:43;;;;;;;;;;;7.90;99.90;;;;;;5061016;28;19909;-81
2022/04/24 00:57:10;;;;;;;;;;;7.90;99.90;;;;;;5061411;28;19991;-80
2022/04/24 00:59:39;;;;;;;;;;;7.90;99.90;;;;;;5060624;28;20257;-80
2022/04/24 01:02:06;;;;;;;;;;;8.00;99.90;;;;;;5059469;28;19911;-80
2022/04/24 01:04:35;;;;;;;;;;;8.00;99.90;;;;;;5061488;28;20349;-80
2022/04/24 01:07:01;;;;;;;;;;;7.90;99.90;;;;;;5064716;28;19935;-81
2022/04/24 01:09:27;;;;;;;;;;;8.00;99.90;;;;;;5056065;28;19908;-81
2022/04/24 01:11:53;;;;;;;;;;;7.90;99.90;;;;;;5036546;28;19952;-81
2022/04/24 01:14:20;;;;;;;;;;;7.90;99.90;;;;;;5040585;28;19951;-80
2022/04/24 01:16:46;;;;;;;;;;;7.90;99.90;;;;;;5054919;28;20369;-80
2022/04/24 01:19:12;;;;;;;;;;;7.80;99.90;;;;;;5054768;28;20367;-80
2022/04/24 01:21:40;;;;;;;;;;;7.80;99.90;;;;;;5054604;28;19991;-81
2022/04/24 01:24:06;;;;;;;;;;;7.80;99.90;;;;;;5054723;28;19905;-81
2022/04/24 01:26:32;;;;;;;;;;;7.70;99.90;;;;;;5043456;28;19968;-81
2022/04/24 01:28:58;;;;;;;;;;;7.70;99.90;;;;;;5054566;28;19905;-80
2022/04/24 01:31:23;;;;;;;;;;;7.70;99.90;;;;;;5054893;28;19955;-81
2022/04/24 01:33:49;;;;;;;;;;;7.60;99.90;;;;;;5054423;28;19913;-80
2022/04/24 01:36:14;;;;;;;;;;;7.50;99.90;;;;;;5054666;28;19905;-80
2022/04/24 01:38:41;;;;;;;;;;;7.50;99.90;;;;;;5054600;28;19905;-80
2022/04/24 01:41:07;;;;;;;;;;;7.50;99.90;;;;;;5050988;28;21438;-81
2022/04/24 01:43:32;;;;;;;;;;;7.50;99.90;;;;;;5054063;28;20369;-81
2022/04/24 01:45:58;;;;;;;;;;;7.50;99.90;;;;;;5054137;28;19909;-81
2022/04/24 01:48:23;;;;;;;;;;;7.50;99.90;;;;;;5053767;28;20027;-81
2022/04/24 01:50:53;;;;;;;;;;;7.50;99.90;;;;;;5054286;28;19909;-81
2022/04/24 01:53:19;;;;;;;;;;;7.50;99.90;;;;;;5054017;28;19905;-81
2022/04/24 01:55:45;;;;;;;;;;;7.50;99.90;;;;;;5053923;28;19915;-81
2022/04/24 01:58:10;;;;;;;;;;;7.50;99.90;;;;;;5052715;28;19905;-81
2022/04/24 02:00:36;;;;;;;;;;;7.40;99.90;;;;;;5053624;28;19913;-82
2022/04/24 02:03:01;;;;;;;;;;;7.40;99.90;;;;;;5054202;28;19943;-81
2022/04/24 02:05:27;;;;;;;;;;;7.40;99.90;;;;;;5053851;28;19905;-81
2022/04/24 02:07:52;;;;;;;;;;;7.40;99.90;;;;;;5052607;28;19905;-82
2022/04/24 02:10:18;;;;;;;;;;;7.30;99.90;;;;;;5054226;28;19905;-81
2022/04/24 02:12:44;;;;;;;;;;;7.20;99.90;;;;;;5053948;28;20380;-82
2022/04/24 02:15:10;;;;;;;;;;;7.20;99.90;;;;;;5053581;28;19916;-82
2022/04/24 02:17:35;;;;;;;;;;;7.00;99.90;;;;;;5053911;28;19904;-82
2022/04/24 02:20:01;;;;;;;;;;;7.00;99.90;;;;;;5053793;28;19909;-82
2022/04/24 02:22:30;;;;;;;;;;;7.00;99.90;;;;;;5054111;28;19904;-81
2022/04/24 02:24:56;;;;;;;;;;;7.00;99.90;;;;;;5052532;28;19909;-81
2022/04/24 02:27:21;;;;;;;;;;;7.00;99.90;;;;;;5055456;28;19912;-81
2022/04/24 02:29:47;;;;;;;;;;;7.00;99.90;;;;;;5050581;28;19962;-81
2022/04/24 02:32:12;;;;;;;;;;;6.90;99.90;;;;;;5058473;28;19978;-81
2022/04/24 02:34:38;;;;;;;;;;;6.90;99.90;;;;;;5044208;28;19909;-81
2022/04/24 02:37:04;;;;;;;;;;;6.80;99.90;;;;;;5055077;28;19999;-82
2022/04/24 02:39:29;;;;;;;;;;;6.80;99.90;;;;;;5059219;28;19916;-82
2022/04/24 02:41:55;;;;;;;;;;;6.80;99.90;;;;;;5059163;28;19905;-82
2022/04/24 02:44:20;;;;;;;;;;;6.70;99.90;;;;;;5060130;28;19912;-82
2022/04/24 02:46:46;;;;;;;;;;;6.70;99.90;;;;;;5059976;28;19909;-82
2022/04/24 02:49:12;;;;;;;;;;;6.70;99.90;;;;;;5059131;28;19971;-82
2022/04/24 02:51:38;;;;;;;;;;;6.70;99.90;;;;;;5060481;28;19912;-82
2022/04/24 02:54:04;;;;;;;;;;;6.80;99.90;;;;;;5052570;28;20277;-81
2022/04/24 02:56:29;;;;;;;;;;;6.80;99.90;;;;;;5049934;28;19908;-82
2022/04/24 02:58:55;;;;;;;;;;;6.70;99.90;;;;;;5059690;28;19905;-81
2022/04/24 03:01:22;;;;;;;;;;;6.70;99.90;;;;;;5051797;28;19963;-82
2022/04/24 03:03:49;;;;;;;;;;;6.70;99.90;;;;;;5056657;28;19908;-82
2022/04/24 03:06:15;;;;;;;;;;;6.70;99.90;;;;;;5044383;28;19909;-82
2022/04/24 03:08:41;;;;;;;;;;;6.80;99.90;;;;;;5037649;28;19916;-82
2022/04/24 03:11:07;;;;;;;;;;;6.70;99.90;;;;;;5037085;28;19905;-81
2022/04/24 03:13:32;;;;;;;;;;;6.70;99.90;;;;;;5036898;28;19905;-81
2022/04/24 03:15:58;;;;;;;;;;;6.70;99.90;;;;;;5046860;28;19915;-82
2022/04/24 03:18:23;;;;;;;;;;;6.70;99.90;;;;;;5057502;28;19908;-82
2022/04/24 03:20:49;;;;;;;;;;;6.70;99.90;;;;;;5056775;28;19961;-81
2022/04/24 03:23:15;;;;;;;;;;;6.70;99.90;;;;;;5056764;28;19904;-81
2022/04/24 03:25:41;;;;;;;;;;;6.60;99.90;;;;;;5055298;28;19909;-81
2022/04/24 03:28:08;;;;;;;;;;;6.60;99.90;;;;;;5056661;28;19905;-81
2022/04/24 03:30:34;;;;;;;;;;;6.50;99.90;;;;;;5056808;28;19909;-81
2022/04/24 03:33:00;;;;;;;;;;;6.40;99.90;;;;;;5056278;28;20316;-81
2022/04/24 03:35:26;;;;;;;;;;;6.40;99.90;;;;;;5056280;28;19904;-82
2022/04/24 03:37:51;;;;;;;;;;;6.40;99.90;;;;;;5055501;28;19905;-82
2022/04/24 03:40:19;;;;;;;;;;;6.40;99.90;;;;;;5054115;28;19958;-82
2022/04/24 03:42:45;;;;;;;;;;;6.20;99.90;;;;;;5056046;28;19905;-82
2022/04/24 03:45:11;;;;;;;;;;;6.20;99.90;;;;;;5054177;28;20377;-81
2022/04/24 03:47:37;;;;;;;;;;;6.20;99.90;;;;;;5055636;28;19919;-81
2022/04/24 03:50:03;;;;;;;;;;;6.10;99.90;;;;;;5053949;28;20276;-82
2022/04/24 03:52:29;;;;;;;;;;;6.10;99.90;;;;;;5056138;28;20339;-81
2022/04/24 03:54:55;;;;;;;;;;;6.10;99.90;;;;;;5053825;28;19904;-81
2022/04/24 03:57:20;;;;;;;;;;;6.10;99.90;;;;;;5055239;28;19905;-81
2022/04/24 03:59:46;;;;;;;;;;;6.10;99.90;;;;;;5056102;28;19915;-81
2022/04/24 04:02:12;;;;;;;;;;;6.20;99.90;;;;;;5054812;28;19905;-81
2022/04/24 04:04:37;;;;;;;;;;;6.40;99.90;;;;;;5056025;28;19904;-81
2022/04/24 04:07:03;;;;;;;;;;;6.80;99.90;;;;;;5054851;28;19999;-81
2022/04/24 04:09:29;;;;;;;;;;;7.10;99.90;;;;;;5055029;28;19905;-81
2022/04/24 04:11:55;;;;;;;;;;;7.40;99.90;;;;;;5055975;28;19944;-82
2022/04/24 04:14:21;;;;;;;;;;;7.60;99.90;;;;;;5056141;28;20383;-82
2022/04/24 04:16:48;;;;;;;;;;;7.70;99.90;;;;;;5055578;28;19908;-81
2022/04/24 04:19:13;;;;;;;;;;;8.00;99.90;;;;;;5055640;28;20390;-81
2022/04/24 04:21:39;;;;;;;;;;;8.00;99.90;;;;;;5054128;28;20093;-82
2022/04/24 04:24:05;;;;;;;;;;;7.90;99.90;;;;;;5055448;28;19908;-81
2022/04/24 04:26:30;;;;;;;;;;;7.70;99.90;;;;;;5055500;28;20320;-82
2022/04/24 04:28:57;;;;;;;;;;;7.70;99.90;;;;;;5054156;28;19944;-81
2022/04/24 04:31:22;;;;;;;;;;;7.60;99.90;;;;;;5055366;28;20007;-81
2022/04/24 04:33:48;;;;;;;;;;;7.50;99.90;;;;;;5056264;28;19948;-81
2022/04/24 04:36:13;;;;;;;;;;;7.50;99.90;;;;;;5055634;28;19911;-81
2022/04/24 04:38:39;;;;;;;;;;;7.60;99.90;;;;;;5055273;28;19909;-81
2022/04/24 04:41:05;;;;;;;;;;;7.60;99.90;;;;;;5054046;28;19916;-80
2022/04/24 04:43:30;;;;;;;;;;;7.50;99.90;;;;;;5055078;28;19909;-81
2022/04/24 04:45:56;;;;;;;;;;;7.40;99.90;;;;;;5053708;28;19916;-81
2022/04/24 04:48:22;;;;;;;;;;;7.30;99.90;;;;;;5054988;28;19911;-81
2022/04/24 04:50:47;;;;;;;;;;;7.10;99.90;;;;;;5053850;28;20350;-81
2022/04/24 04:53:13;;;;;;;;;;;7.00;99.90;;;;;;5054522;28;19908;-81
2022/04/24 04:55:38;;;;;;;;;;;7.00;99.90;;;;;;5054632;28;19946;-81
2022/04/24 04:58:04;;;;;;;;;;;7.00;99.90;;;;;;5054318;28;19962;-81
2022/04/24 05:00:29;;;;;;;;;;;7.00;99.90;;;;;;5053581;28;19917;-81
2022/04/24 05:02:55;;;;;;;;;;;7.00;99.90;;;;;;5053889;28;20285;-81
2022/04/24 05:05:21;;;;;;;;;;;7.00;99.90;;;;;;5052945;28;19908;-81
2022/04/24 05:07:47;;;;;;;;;;;7.00;99.90;;;;;;5054280;28;19944;-81
2022/04/24 05:10:12;;;;;;;;;;;7.00;99.90;;;;;;5054833;28;19916;-81
2022/04/24 05:12:38;;;;;;;;;;;7.10;99.90;;;;;;5040572;28;19962;-81
2022/04/24 05:15:04;;;;;;;;;;;7.10;99.90;;;;;;5053322;28;19909;-81
2022/04/24 05:17:30;;;;;;;;;;;7.10;99.90;;;;;;5051817;28;19919;-81
2022/04/24 05:19:56;;;;;;;;;;;7.10;99.90;;;;;;5043122;28;19909;-81
2022/04/24 05:22:22;;;;;;;;;;;7.00;99.90;;;;;;5049345;28;19909;-81
2022/04/24 05:24:48;;;;;;;;;;;7.00;99.90;;;;;;5043474;28;19935;-81
2022/04/24 05:27:14;;;;;;;;;;;6.90;99.90;;;;;;5051190;28;19931;-81
2022/04/24 05:29:40;;;;;;;;;;;6.90;99.90;;;;;;5050014;28;19909;-81
2022/04/24 05:32:06;;;;;;;;;;;6.90;99.90;;;;;;5049059;28;19908;-81
2022/04/24 05:34:32;;;;;;;;;;;6.90;99.90;;;;;;5054561;28;19943;-81
2022/04/24 05:36:58;;;;;;;;;;;7.00;99.90;;;;;;5053875;28;19909;-81
2022/04/24 05:39:23;;;;;;;;;;;7.00;99.90;;;;;;5053610;28;19958;-80
2022/04/24 05:41:49;;;;;;;;;;;7.10;99.90;;;;;;5054141;28;19948;-81
2022/04/24 05:44:14;;;;;;;;;;;7.20;99.90;;;;;;5047776;28;19963;-82
2022/04/24 05:46:40;;;;;;;;;;;7.30;99.90;;;;;;5048225;28;19908;-82
2022/04/24 05:49:06;;;;;;;;;;;7.50;99.90;;;;;;5054197;28;19962;-82
2022/04/24 05:51:33;;;;;;;;;;;7.60;99.90;;;;;;5051021;28;20285;-82
2022/04/24 05:53:59;;;;;;;;;;;7.70;99.90;;;;;;5050982;28;20295;-81
2022/04/24 05:56:25;;;;;;;;;;;7.80;99.90;;;;;;5054185;28;19991;-81
2022/04/24 05:58:51;;;;;;;;;;;7.90;99.90;;;;;;5055334;28;19904;-82
2022/04/24 06:01:17;;;;;;;;;;;8.10;99.90;;;;;;5045113;28;19924;-82
2022/04/24 06:03:42;;;;;;;;;;;8.20;99.90;;;;;;5052724;28;20352;-82
2022/04/24 06:06:08;;;;;;;;;;;8.40;99.90;;;;;;5053248;28;19905;-81
2022/04/24 06:08:34;;;;;;;;;;;8.50;99.90;;;;;;5053419;28;20292;-82
2022/04/24 06:11:00;;;;;;;;;;;8.50;99.90;;;;;;5052833;28;19912;-81
2022/04/24 06:13:26;;;;;;;;;;;8.60;99.90;;;;;;5053197;28;20334;-81
2022/04/24 06:15:55;;;;;;;;;;;8.70;99.90;;;;;;5053006;28;19995;-82
2022/04/24 06:18:20;;;;;;;;;;;8.80;99.90;;;;;;5051820;28;20335;-81
2022/04/24 06:20:46;;;;;;;;;;;8.80;99.90;;;;;;5052924;28;19960;-82
2022/04/24 06:23:12;;;;;;;;;;;8.90;99.90;;;;;;5053129;28;19964;-81
2022/04/24 06:25:38;;;;;;;;;;;9.00;99.90;;;;;;5051770;28;19905;-81
2022/04/24 06:28:04;;;;;;;;;;;9.10;99.90;;;;;;5053295;28;19905;-81
2022/04/24 06:30:31;;;;;;;;;;;9.10;99.90;;;;;;5051739;28;20384;-81
2022/04/24 06:32:57;;;;;;;;;;;9.20;99.90;;;;;;5052894;28;20258;-81
2022/04/24 06:35:23;;;;;;;;;;;9.40;99.90;;;;;;5051427;28;20273;-81
2022/04/24 06:37:50;;;;;;;;;;;9.50;99.90;;;;;;5053397;28;20250;-81
2022/04/24 06:40:16;;;;;;;;;;;9.60;99.90;;;;;;5051468;28;20383;-81
2022/04/24 06:42:50;;;;;;;;;;;9.70;99.90;;;;;;5053617;28;20408;-81
2022/04/24 06:45:16;;;;;;;;;;;9.80;99.90;;;;;;5053996;28;19909;-83
2022/04/24 06:47:42;;;;;;;;;;;10.00;99.90;;;;;;5052452;28;19955;-82
2022/04/24 06:50:08;;;;;;;;;;;10.00;99.90;;;;;;5053551;28;19904;-82
2022/04/24 06:52:34;;;;;;;;;;;10.10;99.90;;;;;;5052258;28;19996;-82
2022/04/24 06:55:00;;;;;;;;;;;10.10;99.90;;;;;;5052672;28;19908;-81
2022/04/24 06:57:26;;;;;;;;;;;10.10;99.90;;;;;;5054405;28;19904;-81
2022/04/24 06:59:52;;;;;;;;;;;10.20;99.90;;;;;;5053906;28;20033;-81
2022/04/24 07:02:17;;;;;;;;;;;10.20;99.90;;;;;;5056124;28;19943;-81
2022/04/24 07:04:43;;;;;;;;;;;10.30;99.90;;;;;;5053929;28;19905;-81
2022/04/24 07:07:08;;;;;;;;;;;10.40;99.90;;;;;;5051999;28;19904;-81
2022/04/24 07:09:34;;;;;;;;;;;10.70;99.90;;;;;;5053804;28;20434;-81
2022/04/24 07:12:00;;;;;;;;;;;10.90;99.90;;;;;;5053221;28;20293;-81
2022/04/24 07:14:25;;;;;;;;;;;11.20;97.80;;;;;;5056511;28;20005;-81
2022/04/24 07:16:51;;;;;;;;;;;11.40;97.50;;;;;;5057059;28;19931;-81
2022/04/24 07:19:16;;;;;;;;;;;11.60;96.50;;;;;;5056698;28;19905;-81
2022/04/24 07:21:42;;;;;;;;;;;11.80;95.30;;;;;;5055388;28;20262;-81
2022/04/24 07:24:07;;;;;;;;;;;12.00;92.30;;;;;;5055369;28;19912;-81
2022/04/24 07:26:33;;;;;;;;;;;12.10;89.20;;;;;;5056584;28;19905;-81
2022/04/24 07:28:59;;;;;;;;;;;12.10;82.10;;;;;;5056528;28;20000;-81
2022/04/24 07:31:25;;;;;;;;;;;12.20;77.20;;;;;;5056721;28;20330;-81
2022/04/24 07:33:52;;;;;;;;;;;12.20;69.90;;;;;;5056981;28;19947;-80
2022/04/24 07:36:18;;;;;;;;;;;12.40;64.70;;;;;;5056421;28;20319;-80
2022/04/24 07:38:44;;;;;;;;;;;12.50;63.10;;;;;;5056593;28;19904;-80
2022/04/24 07:41:10;;;;;;;;;;;12.60;59.60;;;;;;5056209;28;20020;-80
2022/04/24 07:43:36;;;;;;;;;;;12.80;62.00;;;;;;5056755;28;20265;-80
2022/04/24 07:46:02;;;;;;;;;;;12.90;60.40;;;;;;5056799;28;19905;-80
2022/04/24 07:48:27;;;;;;;;;;;13.10;59.60;;;;;;5055101;28;19912;-80
2022/04/24 07:50:53;;;;;;;;;;;13.20;59.70;;;;;;5056127;28;19905;-80
2022/04/24 07:53:19;;;;;;;;;;;13.40;57.30;;;;;;5056068;28;20034;-80
2022/04/24 07:55:46;;;;;;;;;;;13.60;56.90;;;;;;5056040;28;19908;-80
2022/04/24 07:58:12;;;;;;;;;;;13.70;54.00;;;;;;5056234;28;19905;-81
2022/04/24 08:00:37;;;;;;;;;;;13.80;55.20;;;;;;5056298;28;19916;-80
2022/04/24 08:03:05;;;;;;;;;;;13.90;56.70;;;;;;5055817;28;20300;-80
2022/04/24 08:05:41;;;;;;;;;;;14.00;54.80;;;;;;5056102;28;19974;-80
2022/04/24 08:08:08;;;;;;;;;;;14.20;54.20;;;;;;5056186;28;19904;-81
2022/04/24 08:10:34;;;;;;;;;;;14.30;53.70;;;;;;5055724;28;19970;-81
2022/04/24 08:13:03;;;;;;;;;;;14.50;55.10;;;;;;5056427;28;19916;-80
2022/04/24 08:15:30;;;;;;;;;;;14.70;54.10;;;;;;5055599;28;19917;-81
2022/04/24 08:17:55;;;;;;;;;;;14.90;53.90;;;;;;5055543;28;19905;-80
2022/04/24 08:20:21;;;;;;;;;;;15.00;52.40;;;;;;5055764;28;19974;-81
2022/04/24 08:22:48;;;;;;;;;;;15.20;50.50;;;;;;5055739;28;19904;-81
2022/04/24 08:25:15;;;;;;;;;;;15.30;50.70;;;;;;5055384;28;19904;-81
2022/04/24 08:27:40;;;;;;;;;;;15.30;50.50;;;;;;5055394;28;19915;-81
2022/04/24 08:30:07;;;;;;;;;;;15.20;52.30;;;;;;5055708;28;20357;-81
2022/04/24 08:32:33;;;;;;;;;;;15.10;51.10;;;;;;5055337;28;19905;-81
2022/04/24 08:34:58;;;;;;;;;;;15.00;50.70;;;;;;5055438;28;19911;-81
2022/04/24 08:37:24;;;;;;;;;;;14.80;48.80;;;;;;5055332;28;19912;-81
2022/04/24 08:39:50;;;;;;;;;;;14.80;50.30;;;;;;5055083;28;19917;-81
2022/04/24 08:42:19;;;;;;;;;;;14.90;50.50;;;;;;5055264;28;19909;-81
2022/04/24 08:44:46;;;;;;;;;;;15.20;50.80;;;;;;5053819;28;19909;-80
2022/04/24 08:47:14;;;;;;;;;;;15.50;53.10;;;;;;5055175;28;19999;-80
2022/04/24 08:49:40;;;;;;;;;;;15.80;53.30;;;;;;5053946;28;19908;-80
2022/04/24 08:52:06;;;;;;;;;;;16.00;51.00;;;;;;5055579;28;19955;-80
2022/04/24 08:54:31;;;;;;;;;;;16.00;51.40;;;;;;5055381;28;19912;-80
2022/04/24 08:56:58;;;;;;;;;;;16.00;51.00;;;;;;5053767;28;19996;-81
2022/04/24 08:59:23;;;;;;;;;;;15.90;51.10;;;;;;5053654;28;19911;-80
2022/04/24 09:01:50;;;;;;;;;;;15.90;51.80;;;;;;5055063;28;19995;-80
2022/04/24 09:04:16;;;;;;;;;;;16.10;51.60;;;;;;5054834;28;19912;-81
2022/04/24 09:06:42;;;;;;;;;;;16.30;50.40;;;;;;5054749;28;20285;-81
2022/04/24 09:09:07;;;;;;;;;;;16.30;50.00;;;;;;5054810;28;19912;-81
2022/04/24 09:11:33;;;;;;;;;;;16.30;49.80;;;;;;5054992;28;19905;-81
2022/04/24 09:16:47;;;;;;;;;;;16.30;50.50;;;;;;5055108;28;19912;-81
2022/04/24 09:19:16;;;;;;;;;;;16.40;51.80;;;;;;5054529;28;20050;-81
2022/04/24 09:21:41;;;;;;;;;;;16.50;48.70;;;;;;5054469;28;19954;-82
2022/04/24 09:24:07;;;;;;;;;;;16.50;48.10;;;;;;5054441;28;19909;-82
2022/04/24 09:26:33;;;;;;;;;;;16.50;48.50;;;;;;5054470;28;19905;-82
2022/04/24 09:28:59;;;;;;;;;;;16.40;46.50;;;;;;5054445;28;19940;-82
2022/04/24 09:31:30;;;;;;;;;;;16.30;45.20;;;;;;5054508;28;19983;-82
2022/04/24 09:33:56;;;;;;;;;;;16.20;47.30;;;;;;5054243;28;19904;-82
2022/04/24 09:36:24;;;;;;;;;;;16.10;50.40;;;;;;5053804;28;19904;-82
2022/04/24 09:38:50;;;;;;;;;;;16.10;51.40;;;;;;5052821;28;19915;-82
2022/04/24 09:41:22;;;;;;;;;;;16.20;51.50;;;;;;5054487;28;19908;-82
2022/04/24 09:43:48;;;;;;;;;;;16.30;50.60;;;;;;5054226;28;19912;-82
2022/04/24 09:46:23;;;;;;;;;;;16.60;52.30;;;;;;5054153;28;19927;-81
2022/04/24 09:48:52;;;;;;;;;;;16.80;48.60;;;;;;5054615;28;20329;-81
2022/04/24 09:51:18;;;;;;;;;;;16.80;47.30;;;;;;5055366;28;20383;-82
2022/04/24 09:53:44;;;;;;;;;;;16.90;46.20;;;;;;5055505;28;19912;-82
2022/04/24 09:56:09;;;;;;;;;;;17.00;46.00;;;;;;5054456;28;19908;-82
2022/04/24 09:58:37;;;;;;;;;;;17.10;45.40;;;;;;5054966;28;19904;-82
2022/04/24 10:01:04;;;;;;;;;;;17.00;45.80;;;;;;5055566;28;20284;-82
2022/04/24 10:03:29;;;;;;;;;;;16.90;46.10;;;;;;5057359;28;19905;-82
2022/04/24 10:05:55;;;;;;;;;;;17.10;46.70;;;;;;5057940;28;19931;-82
2022/04/24 10:08:21;;;;;;;;;;;17.20;47.30;;;;;;5059215;28;19911;-82
2022/04/24 10:10:47;;;;;;;;;;;17.30;46.10;;;;;;5061530;28;19920;-82
2022/04/24 10:13:12;;;;;;;;;;;17.10;44.20;;;;;;5060793;28;19905;-82
2022/04/24 10:15:43;;;;;;;;;;;17.10;46.70;;;;;;5060767;28;19912;-82
2022/04/24 10:18:13;;;;;;;;;;;17.20;44.50;;;;;;5061155;28;19905;-82
2022/04/24 10:20:48;;;;;;;;;;;17.00;43.30;;;;;;5064199;28;19909;-82
2022/04/24 10:23:14;;;;;;;;;;;17.00;45.30;;;;;;5063745;28;19964;-82
2022/04/24 10:25:43;;;;;;;;;;;17.00;44.70;;;;;;5059141;28;19970;-82
2022/04/24 10:28:18;;;;;;;;;;;17.20;45.40;;;;;;5056496;28;20308;-82
2022/04/24 10:30:57;;;;;;;;;;;17.40;43.00;;;;;;5056635;28;19905;-82
2022/04/24 10:33:28;;;;;;;;;;;17.70;44.10;;;;;;5057398;28;20281;-82
2022/04/24 10:35:59;;;;;;;;;;;17.80;43.60;;;;;;5056271;28;19905;-82
2022/04/24 10:38:25;;;;;;;;;;;17.90;43.50;;;;;;5054689;28;19953;-83
2022/04/24 10:41:14;;;;;;;;;;;17.70;42.30;;;;;;5056472;28;19971;-83
2022/04/24 10:43:48;;;;;;;;;;;17.60;41.20;;;;;;5055379;28;19905;-83
2022/04/24 10:46:15;;;;;;;;;;;17.30;41.50;;;;;;5057230;28;19904;-82
2022/04/24 10:48:41;;;;;;;;;;;17.30;43.60;;;;;;5058735;28;19905;-82
2022/04/24 10:51:07;;;;;;;;;;;17.60;44.90;;;;;;5060979;28;19911;-82
2022/04/24 10:53:52;;;;;;;;;;;17.70;43.70;;;;;;5059304;28;20384;-82
2022/04/24 10:56:18;;;;;;;;;;;17.60;42.80;;;;;;5060264;28;19905;-82
2022/04/24 10:58:44;;;;;;;;;;;17.60;42.30;;;;;;5059560;28;19999;-83
2022/04/24 11:01:12;;;;;;;;;;;17.40;47.60;;;;;;5060771;28;19959;-82
2022/04/24 11:03:45;;;;;;;;;;;17.20;42.90;;;;;;5059993;28;19911;-83
2022/04/24 11:06:18;;;;;;;;;;;16.80;44.20;;;;;;5058233;28;19974;-82
2022/04/24 11:08:43;;;;;;;;;;;16.70;42.80;;;;;;5059395;28;19905;-82
2022/04/24 11:11:10;;;;;;;;;;;16.60;50.00;;;;;;5057984;28;19987;-82
2022/04/24 11:13:36;;;;;;;;;;;16.50;51.10;;;;;;5058946;28;19930;-82
2022/04/24 11:16:02;;;;;;;;;;;16.40;53.80;;;;;;5060218;28;19940;-82
2022/04/24 11:18:28;;;;;;;;;;;16.40;54.00;;;;;;5060404;28;19911;-82
2022/04/24 11:20:53;;;;;;;;;;;16.30;55.90;;;;;;5058420;28;19915;-82
2022/04/24 11:23:20;;;;;;;;;;;16.30;57.20;;;;;;5059481;28;19905;-82
2022/04/24 11:25:45;;;;;;;;;;;16.40;57.30;;;;;;5057726;28;19998;-82
2022/04/24 11:28:11;;;;;;;;;;;16.60;59.20;;;;;;5059316;28;19910;-82
2022/04/24 11:30:38;;;;;;;;;;;16.90;59.90;;;;;;5058208;28;19911;-82
2022/04/24 11:33:05;;;;;;;;;;;17.20;60.60;;;;;;5058919;28;19905;-82
2022/04/24 11:35:31;;;;;;;;;;;17.50;54.80;;;;;;5058685;28;19908;-83
2022/04/24 11:37:57;;;;;;;;;;;17.60;57.40;;;;;;5059857;28;19904;-83
2022/04/24 11:40:23;;;;;;;;;;;17.60;56.60;;;;;;5058885;28;20390;-83
2022/04/24 11:42:49;;;;;;;;;;;17.40;56.00;;;;;;5059618;28;20280;-83
2022/04/24 11:50:50;;;;;;;;;;;16.60;60.10;;;;;;5058874;28;19912;-82
2022/04/24 11:53:16;;;;;;;;;;;16.40;61.30;;;;;;5058019;28;19905;-82
2022/04/24 11:58:27;;;;;;;;;;;15.90;60.50;;;;;;5057565;28;19911;-82
2022/04/24 12:00:52;;;;;;;;;;;15.60;61.10;;;;;;5057478;28;20023;-82
2022/04/24 12:03:20;;;;;;;;;;;15.60;63.60;;;;;;5057303;28;19940;-82
2022/04/24 12:05:56;;;;;;;;;;;15.50;62.00;;;;;;5056988;28;19905;-82
2022/04/24 12:08:21;;;;;;;;;;;15.40;64.00;;;;;;5057411;28;19912;-81
2022/04/24 12:10:47;;;;;;;;;;;15.40;64.70;;;;;;5058732;28;19909;-82
2022/04/24 12:13:21;;;;;;;;;;;15.30;64.70;;;;;;5058451;28;19912;-82
2022/04/24 12:15:51;;;;;;;;;;;15.40;63.30;;;;;;5059222;28;19905;-82
2022/04/24 12:18:21;;;;;;;;;;;15.40;63.90;;;;;;5059038;28;19912;-82
2022/04/24 12:20:49;;;;;;;;;;;15.50;64.70;;;;;;5058997;28;19909;-82
2022/04/24 12:23:15;;;;;;;;;;;15.50;64.20;;;;;;5058560;28;19937;-82
2022/04/24 12:25:52;;;;;;;;;;;15.50;64.60;;;;;;5057951;28;20285;-82
2022/04/24 12:28:31;;;;;;;;;;;15.40;64.40;;;;;;5058327;28;20322;-82
2022/04/24 12:30:57;;;;;;;;;;;15.40;64.70;;;;;;5057055;28;19912;-81
2022/04/24 12:33:23;;;;;;;;;;;15.30;64.90;;;;;;5057477;28;19904;-82
2022/04/24 12:35:48;;;;;;;;;;;15.30;65.70;;;;;;5057494;28;19935;-82
2022/04/24 12:38:15;;;;;;;;;;;15.30;66.00;;;;;;5055723;28;19911;-82
2022/04/24 12:40:40;;;;;;;;;;;15.10;65.80;;;;;;5056752;28;19916;-82
2022/04/24 12:43:06;;;;;;;;;;;14.80;66.70;;;;;;5056228;28;19926;-82
2022/04/24 12:45:32;;;;;;;;;;;14.60;67.20;;;;;;5056998;28;19904;-81
2022/04/24 12:47:58;;;;;;;;;;;14.70;68.10;;;;;;5057657;28;19951;-81
2022/04/24 12:50:24;;;;;;;;;;;14.60;69.20;;;;;;5057759;28;19904;-81
2022/04/24 12:52:49;;;;;;;;;;;14.40;69.10;;;;;;5056580;28;19908;-81
2022/04/24 12:55:15;;;;;;;;;;;14.20;69.20;;;;;;5056161;28;19904;-81
2022/04/24 12:57:41;;;;;;;;;;;14.00;69.90;;;;;;5056270;28;19911;-81
2022/04/24 13:00:07;;;;;;;;;;;14.00;70.80;;;;;;5056419;28;20285;-81
2022/04/24 13:02:33;;;;;;;;;;;13.90;70.50;;;;;;5056062;28;19908;-82
2022/04/24 13:04:59;;;;;;;;;;;13.80;71.80;;;;;;5056147;28;19905;-82
2022/04/24 13:07:25;;;;;;;;;;;13.80;71.00;;;;;;5056053;28;19905;-82
2022/04/24 13:09:51;;;;;;;;;;;13.80;71.30;;;;;;5055809;28;19983;-82
2022/04/24 13:12:17;;;;;;;;;;;13.70;71.70;;;;;;5055604;28;20377;-81
2022/04/24 13:14:42;;;;;;;;;;;13.70;72.70;;;;;;5055807;28;20354;-81
2022/04/24 13:19:52;;;;;;;;;;;13.90;72.10;;;;;;5056954;28;19912;-82
2022/04/24 13:22:18;;;;;;;;;;;13.90;72.00;;;;;;5054913;28;19905;-81
2022/04/24 13:24:43;;;;;;;;;;;13.90;72.10;;;;;;5054658;28;19927;-81
2022/04/24 13:27:09;;;;;;;;;;;14.00;72.10;;;;;;5054521;28;19904;-81
2022/04/24 13:29:34;;;;;;;;;;;14.30;71.90;;;;;;5054839;28;19905;-81
2022/04/24 13:32:00;;;;;;;;;;;14.30;68.90;;;;;;5054584;28;19916;-81
2022/04/24 13:34:25;;;;;;;;;;;14.10;70.00;;;;;;5054270;28;19909;-82
2022/04/24 13:38:17;;;;;;;;;;;13.80;70.50;;;;;;5053656;28;19909;-82
2022/04/24 13:39:36;;;;;;;;;;;13.60;71.20;;;;;;5053831;28;19913;-82
2022/04/24 13:42:02;;;;;;;;;;;13.50;71.50;;;;;;5051463;28;19936;-82
2022/04/24 13:44:28;;;;;;;;;;;13.40;73.50;;;;;;5054391;28;20364;-82
2022/04/24 13:46:53;;;;;;;;;;;13.40;72.90;;;;;;5053931;28;19927;-82
2022/04/24 13:49:20;;;;;;;;;;;13.50;72.00;;;;;;5069198;28;19970;-82
2022/04/24 13:51:45;;;;;;;;;;;13.40;73.10;;;;;;5052658;28;19905;-82
2022/04/24 13:54:12;;;;;;;;;;;13.40;72.40;;;;;;5053972;28;20328;-82
2022/04/24 13:56:38;;;;;;;;;;;13.40;72.10;;;;;;5054010;28;19931;-82
2022/04/24 13:59:04;;;;;;;;;;;13.40;73.80;;;;;;5054020;28;19911;-82
2022/04/24 14:01:30;;;;;;;;;;;13.30;73.00;;;;;;5054030;28;19912;-82
2022/04/24 14:03:56;;;;;;;;;;;13.20;73.60;;;;;;5053976;28;19905;-82
2022/04/24 14:06:22;;;;;;;;;;;13.10;74.20;;;;;;5053658;28;19905;-82
2022/04/24 14:08:47;;;;;;;;;;;13.10;73.90;;;;;;5053835;28;20276;-82
2022/04/24 14:11:13;;;;;;;;;;;13.10;73.70;;;;;;5053988;28;19931;-82
2022/04/24 14:13:38;;;;;;;;;;;13.20;74.40;;;;;;5052963;28;19912;-82
2022/04/24 14:16:06;;;;;;;;;;;13.30;74.80;;;;;;5053680;28;19904;-82
2022/04/24 14:18:32;;;;;;;;;;;13.40;72.50;;;;;;5053697;28;19955;-82
2022/04/24 14:20:58;;;;;;;;;;;13.50;73.70;;;;;;5069016;28;19909;-82
2022/04/24 14:23:24;;;;;;;;;;;13.50;74.50;;;;;;5057475;28;20250;-82
2022/04/24 14:25:49;;;;;;;;;;;13.60;73.90;;;;;;5058014;28;19944;-82
2022/04/24 14:28:15;;;;;;;;;;;13.80;74.20;;;;;;5058215;28;19904;-83
2022/04/24 14:30:43;;;;;;;;;;;13.90;74.40;;;;;;5057936;28;19905;-82
2022/04/24 14:33:09;;;;;;;;;;;14.10;72.60;;;;;;5057665;28;20037;-82